createdAt,value
2022-12-29T00:00:56.345Z,10.77
2022-12-29T00:03:23.261Z,12.17
2022-12-29T00:05:55.386Z,11.60
2022-12-29T00:08:41.329Z,10.93
2022-12-29T00:11:09.730Z,10.67
2022-12-29T00:13:55.409Z,11.83
2022-12-29T00:16:22.466Z,11.37
2022-12-29T00:18:49.694Z,10.80
2022-12-29T00:21:36.202Z,10.73
2022-12-29T00:24:21.799Z,12.33
2022-12-29T00:27:14.790Z,10.97
2022-12-29T00:30:00.222Z,9.93
2022-12-29T00:32:45.527Z,12.33
2022-12-29T00:35:14.389Z,9.60
2022-12-29T00:38:01.233Z,13.63
2022-12-29T00:40:48.352Z,9.70
2022-12-29T00:43:34.075Z,12.17
2022-12-29T00:46:00.904Z,13.50
2022-12-29T00:48:49.430Z,9.13
2022-12-29T00:51:16.337Z,9.37
2022-12-29T00:53:45.034Z,9.87
2022-12-29T00:56:11.985Z,13.23
2022-12-29T00:58:38.841Z,11.43
2022-12-29T01:01:06.503Z,10.07
2022-12-29T01:03:35.001Z,11.30
2022-12-29T01:06:02.648Z,10.13
2022-12-29T01:08:29.773Z,13.07
2022-12-29T01:11:03.945Z,13.20
2022-12-29T01:13:30.820Z,10.77
2022-12-29T01:15:58.015Z,10.40
2022-12-29T01:18:25.831Z,8.93
2022-12-29T01:21:00.131Z,12.07
2022-12-29T01:23:26.964Z,9.30
2022-12-29T01:25:53.832Z,10.93
2022-12-29T01:28:25.752Z,9.90
2022-12-29T01:30:53.086Z,14.00
2022-12-29T01:33:19.922Z,9.23
2022-12-29T01:35:46.845Z,11.67
2022-12-29T01:38:13.733Z,13.13
2022-12-29T01:40:47.387Z,8.67
2022-12-29T01:43:15.415Z,11.70
2022-12-29T01:45:47.202Z,13.13
2022-12-29T01:48:15.012Z,8.97
2022-12-29T01:50:45.997Z,9.63
2022-12-29T01:53:15.537Z,13.73
2022-12-29T01:55:45.659Z,12.33
2022-12-29T01:58:14.726Z,10.70
2022-12-29T02:00:41.650Z,12.60
2022-12-29T02:03:09.460Z,8.20
2022-12-29T02:05:47.256Z,8.27
2022-12-29T02:08:14.608Z,8.07
2022-12-29T02:10:41.903Z,11.03
2022-12-29T02:13:08.710Z,8.00
2022-12-29T02:15:35.640Z,10.97
2022-12-29T02:18:23.249Z,11.03
2022-12-29T02:21:13.347Z,9.50
2022-12-29T02:23:51.295Z,11.50
2022-12-29T02:26:33.302Z,11.13
2022-12-29T02:29:18.939Z,10.03
2022-12-29T02:31:52.408Z,10.00
2022-12-29T02:34:25.154Z,9.83
2022-12-29T02:36:55.271Z,11.77
2022-12-29T02:39:34.028Z,10.63
2022-12-29T02:42:10.546Z,11.13
2022-12-29T02:44:43.610Z,10.77
2022-12-29T02:47:10.472Z,11.27
2022-12-29T02:49:40.779Z,9.47
2022-12-29T02:52:19.253Z,10.33
2022-12-29T02:54:46.147Z,9.30
2022-12-29T02:57:28.730Z,10.30
2022-12-29T02:59:58.521Z,10.53
2022-12-29T03:02:31.714Z,9.43
2022-12-29T03:05:28.271Z,12.73
2022-12-29T03:08:05.628Z,14.27
2022-12-29T03:10:33.185Z,8.87
2022-12-29T03:13:21.092Z,11.50
2022-12-29T03:16:05.536Z,10.33
2022-12-29T03:18:56.745Z,10.37
2022-12-29T03:21:51.871Z,12.93
2022-12-29T03:24:20.885Z,8.73
2022-12-29T03:26:48.824Z,10.87
2022-12-29T03:29:18.207Z,14.27
2022-12-29T03:31:48.340Z,10.23
2022-12-29T03:34:15.805Z,10.90
2022-12-29T03:36:49.605Z,11.03
2022-12-29T03:39:18.247Z,10.27
2022-12-29T03:41:46.462Z,11.73
2022-12-29T03:44:14.761Z,13.93
2022-12-29T03:46:41.727Z,10.57
2022-12-29T03:49:09.277Z,9.63
2022-12-29T03:51:36.260Z,9.27
2022-12-29T03:54:05.765Z,10.93
2022-12-29T03:56:33.129Z,11.17
2022-12-29T03:59:02.691Z,14.80
2022-12-29T04:01:32.787Z,12.13
2022-12-29T04:03:59.838Z,9.97
2022-12-29T04:06:26.708Z,9.87
2022-12-29T04:09:00.315Z,12.43
2022-12-29T04:11:33.003Z,9.43
2022-12-29T04:14:02.443Z,9.37
2022-12-29T04:16:31.249Z,8.43
2022-12-29T04:18:58.158Z,10.10
2022-12-29T04:21:25.737Z,11.47
2022-12-29T04:23:52.788Z,12.23
2022-12-29T04:26:19.812Z,8.40
2022-12-29T04:28:54.601Z,9.37
2022-12-29T04:31:44.477Z,10.20
2022-12-29T04:34:11.647Z,10.00
2022-12-29T04:36:39.976Z,10.30
2022-12-29T04:39:08.029Z,8.97
2022-12-29T04:41:35.652Z,9.53
2022-12-29T04:44:03.290Z,8.60
2022-12-29T04:46:39.039Z,8.33
2022-12-29T04:49:10.414Z,8.43
2022-12-29T04:51:59.825Z,10.37
2022-12-29T04:54:27.355Z,8.73
2022-12-29T04:57:06.829Z,9.90
2022-12-29T04:59:34.757Z,8.83
2022-12-29T05:02:01.723Z,9.83
2022-12-29T05:04:30.648Z,10.23
2022-12-29T05:06:57.926Z,10.93
2022-12-29T05:09:25.348Z,12.40
2022-12-29T05:11:52.361Z,8.60
2022-12-29T05:14:19.511Z,8.07
2022-12-29T05:16:46.508Z,10.73
2022-12-29T05:19:13.400Z,9.03
2022-12-29T05:21:40.215Z,14.27
2022-12-29T05:24:08.282Z,9.97
2022-12-29T05:26:35.957Z,10.13
2022-12-29T05:29:28.574Z,9.33
2022-12-29T05:31:55.830Z,11.93
2022-12-29T05:34:22.830Z,13.43
2022-12-29T05:36:50.117Z,10.50
2022-12-29T05:39:17.155Z,10.07
2022-12-29T05:41:48.791Z,11.23
2022-12-29T05:44:37.316Z,9.77
2022-12-29T05:47:30.049Z,10.70
2022-12-29T05:50:12.356Z,10.90
2022-12-29T05:52:59.487Z,12.93
2022-12-29T05:55:26.486Z,10.30
2022-12-29T05:57:55.511Z,11.43
2022-12-29T06:00:22.987Z,10.90
2022-12-29T06:02:50.182Z,10.37
2022-12-29T06:05:18.201Z,11.53
2022-12-29T06:07:46.472Z,10.17
2022-12-29T06:10:16.149Z,11.17
2022-12-29T06:12:50.947Z,11.93
2022-12-29T06:15:17.974Z,8.90
2022-12-29T06:17:47.428Z,12.37
2022-12-29T06:20:14.837Z,11.33
2022-12-29T06:22:41.749Z,11.93
2022-12-29T06:25:09.233Z,9.57
2022-12-29T06:27:36.612Z,12.27
2022-12-29T06:30:04.077Z,11.83
2022-12-29T06:32:31.045Z,12.43
2022-12-29T06:35:03.804Z,11.53
2022-12-29T06:37:31.156Z,11.37
2022-12-29T06:39:58.046Z,10.23
2022-12-29T06:42:30.207Z,12.50
2022-12-29T06:45:15.385Z,10.87
2022-12-29T06:47:42.312Z,11.20
2022-12-29T06:50:09.358Z,12.20
2022-12-29T06:52:36.899Z,13.43
2022-12-29T06:55:04.215Z,10.27
2022-12-29T06:57:31.130Z,10.60
2022-12-29T06:59:57.967Z,9.97
2022-12-29T07:02:26.601Z,13.37
2022-12-29T07:04:53.998Z,12.87
2022-12-29T07:07:21.741Z,11.17
2022-12-29T07:09:48.662Z,11.27
2022-12-29T07:12:15.576Z,12.50
2022-12-29T07:14:43.534Z,10.97
2022-12-29T07:17:10.739Z,12.87
2022-12-29T07:19:37.764Z,11.90
2022-12-29T07:22:04.665Z,13.63
2022-12-29T07:24:31.616Z,11.03
2022-12-29T07:26:58.449Z,11.57
2022-12-29T07:29:25.491Z,12.57
2022-12-29T07:31:52.809Z,12.57
2022-12-29T07:34:19.646Z,12.00
2022-12-29T07:36:48.016Z,13.07
2022-12-29T07:39:15.067Z,11.03
2022-12-29T07:41:41.996Z,12.00
2022-12-29T07:44:12.131Z,10.20
2022-12-29T07:47:05.472Z,12.43
2022-12-29T07:49:32.350Z,12.73
2022-12-29T07:51:59.185Z,12.13
2022-12-29T07:54:25.998Z,12.17
2022-12-29T07:56:53.541Z,15.13
2022-12-29T07:59:20.453Z,12.97
2022-12-29T08:01:47.502Z,13.37
2022-12-29T08:04:14.376Z,13.93
2022-12-29T08:06:41.375Z,12.30
2022-12-29T08:09:15.136Z,11.40
2022-12-29T08:11:45.539Z,13.63
2022-12-29T08:14:12.646Z,13.43
2022-12-29T08:16:39.575Z,14.40
2022-12-29T08:19:06.520Z,13.17
2022-12-29T08:21:33.406Z,14.40
2022-12-29T08:24:00.371Z,15.23
2022-12-29T08:26:27.346Z,13.13
2022-12-29T08:28:55.469Z,16.13
2022-12-29T08:31:22.977Z,14.37
2022-12-29T08:33:50.235Z,12.57
2022-12-29T08:36:17.041Z,14.70
2022-12-29T08:38:43.896Z,12.83
2022-12-29T08:41:10.750Z,11.83
2022-12-29T08:43:37.701Z,13.67
2022-12-29T08:46:04.587Z,15.30
2022-12-29T08:48:31.568Z,12.63
2022-12-29T08:50:58.426Z,12.17
2022-12-29T08:53:25.320Z,11.83
2022-12-29T08:56:04.687Z,13.53
2022-12-29T08:58:41.690Z,13.63
2022-12-29T09:01:09.424Z,13.30
2022-12-29T09:06:23.237Z,13.13
2022-12-29T09:08:50.125Z,11.83
2022-12-29T09:11:22.636Z,15.17
2022-12-29T09:13:50.208Z,12.87
2022-12-29T09:16:17.920Z,13.67
2022-12-29T09:18:45.109Z,11.63
2022-12-29T09:21:12.568Z,11.07
2022-12-29T09:23:39.880Z,34.83
2022-12-29T09:26:07.523Z,19.90
2022-12-29T09:28:34.305Z,12.40
2022-12-29T09:31:01.623Z,11.57
2022-12-29T09:33:28.535Z,12.73
2022-12-29T09:35:56.737Z,10.83
2022-12-29T09:38:24.311Z,12.27
2022-12-29T09:40:52.686Z,14.27
2022-12-29T09:43:28.535Z,12.30
2022-12-29T09:46:14.172Z,12.30
2022-12-29T09:48:42.605Z,11.77
2022-12-29T09:51:12.629Z,10.73
2022-12-29T09:53:42.727Z,17.27
2022-12-29T09:56:16.403Z,10.50
2022-12-29T09:58:46.194Z,13.20
2022-12-29T10:01:23.036Z,13.77
2022-12-29T10:03:50.019Z,13.80
2022-12-29T10:06:20.123Z,12.73
2022-12-29T10:09:08.990Z,11.20
2022-12-29T10:11:42.162Z,12.30
2022-12-29T10:14:27.579Z,13.20
2022-12-29T10:16:54.602Z,12.90
2022-12-29T10:19:33.352Z,9.40
2022-12-29T10:22:03.555Z,12.77
2022-12-29T10:24:32.269Z,13.27
2022-12-29T10:27:00.425Z,11.53
2022-12-29T10:29:32.441Z,15.00
2022-12-29T10:32:05.809Z,13.40
2022-12-29T10:34:46.348Z,13.87
2022-12-29T10:37:19.400Z,16.17
2022-12-29T10:39:56.352Z,15.90
2022-12-29T10:42:30.465Z,11.63
2022-12-29T10:44:57.775Z,24.20
2022-12-29T10:47:30.425Z,18.97
2022-12-29T10:49:59.961Z,27.03
2022-12-29T10:52:27.472Z,28.67
2022-12-29T10:55:03.449Z,35.33
2022-12-29T10:57:41.985Z,20.17
2022-12-29T11:00:19.032Z,13.03
2022-12-29T11:02:52.250Z,21.93
2022-12-29T11:05:31.210Z,21.07
2022-12-29T11:08:00.613Z,20.87
2022-12-29T11:10:40.015Z,14.93
2022-12-29T11:13:15.075Z,17.47
2022-12-29T11:15:49.475Z,13.70
2022-12-29T11:18:21.530Z,16.50
2022-12-29T11:20:49.044Z,13.70
2022-12-29T11:23:34.390Z,16.47
2022-12-29T11:26:07.487Z,16.23
2022-12-29T11:28:34.569Z,14.23
2022-12-29T11:31:03.383Z,11.60
2022-12-29T11:33:31.347Z,17.03
2022-12-29T11:36:18.538Z,13.13
2022-12-29T11:38:50.463Z,14.30
2022-12-29T11:41:27.368Z,15.53
2022-12-29T11:43:56.794Z,14.70
2022-12-29T11:46:25.726Z,15.93
2022-12-29T11:48:52.669Z,15.60
2022-12-29T11:51:25.413Z,14.80
2022-12-29T11:53:54.260Z,12.60
2022-12-29T11:56:24.028Z,12.73
2022-12-29T11:58:51.281Z,15.03
2022-12-29T12:01:19.617Z,14.43
2022-12-29T12:04:00.557Z,13.33
2022-12-29T12:06:28.707Z,15.77
2022-12-29T12:08:58.087Z,16.83
2022-12-29T12:11:37.386Z,15.97
2022-12-29T12:14:23.282Z,18.17
2022-12-29T12:17:21.093Z,16.27
2022-12-29T12:19:55.244Z,18.97
2022-12-29T12:22:22.216Z,16.20
2022-12-29T12:24:57.257Z,16.93
2022-12-29T12:27:37.323Z,17.50
2022-12-29T12:30:06.495Z,19.80
2022-12-29T12:32:45.477Z,18.73
2022-12-29T12:35:21.607Z,13.80
2022-12-29T12:37:55.632Z,18.67
2022-12-29T12:40:28.944Z,17.90
2022-12-29T12:43:01.925Z,15.07
2022-12-29T12:45:36.384Z,17.53
2022-12-29T12:48:03.381Z,15.10
2022-12-29T12:50:42.370Z,20.60
2022-12-29T12:53:24.407Z,16.63
2022-12-29T12:55:57.432Z,19.03
2022-12-29T12:58:24.361Z,15.10
2022-12-29T13:01:26.735Z,16.87
2022-12-29T13:04:14.339Z,16.00
2022-12-29T13:07:01.902Z,14.77
2022-12-29T13:09:44.819Z,16.63
2022-12-29T13:12:16.159Z,15.40
2022-12-29T13:14:43.164Z,14.33
2022-12-29T13:17:39.247Z,16.77
2022-12-29T13:20:12.007Z,14.70
2022-12-29T13:22:44.649Z,17.80
2022-12-29T13:25:14.599Z,18.47
2022-12-29T13:27:41.703Z,18.63
2022-12-29T13:30:17.477Z,16.77
2022-12-29T13:32:44.873Z,14.10
2022-12-29T13:35:17.679Z,13.70
2022-12-29T13:38:06.991Z,15.33
2022-12-29T13:40:36.009Z,16.37
2022-12-29T13:43:03.203Z,15.93
2022-12-29T13:45:32.500Z,19.17
2022-12-29T13:48:03.800Z,13.73
2022-12-29T13:50:33.546Z,14.73
2022-12-29T13:53:05.293Z,15.23
2022-12-29T13:55:41.878Z,14.27
2022-12-29T13:58:13.784Z,17.87
2022-12-29T14:00:49.413Z,15.33
2022-12-29T14:03:21.787Z,15.80
2022-12-29T14:06:05.363Z,14.53
2022-12-29T14:08:35.915Z,14.57
2022-12-29T14:11:08.794Z,18.57
2022-12-29T14:13:38.609Z,14.37
2022-12-29T14:16:05.673Z,13.67
2022-12-29T14:18:42.412Z,15.07
2022-12-29T14:21:11.283Z,14.73
2022-12-29T14:23:42.533Z,13.93
2022-12-29T14:26:12.754Z,13.47
2022-12-29T14:28:41.075Z,13.70
2022-12-29T14:31:28.286Z,15.17
2022-12-29T14:34:07.390Z,13.13
2022-12-29T14:36:35.577Z,30.27
2022-12-29T14:39:02.566Z,16.30
2022-12-29T14:41:34.582Z,16.30
2022-12-29T14:44:03.825Z,14.47
2022-12-29T14:46:44.542Z,17.17
2022-12-29T14:49:16.801Z,16.13
2022-12-29T14:51:43.724Z,17.57
2022-12-29T14:54:28.965Z,15.63
2022-12-29T14:56:58.327Z,15.63
2022-12-29T14:59:26.110Z,16.53
2022-12-29T15:01:54.495Z,16.37
2022-12-29T15:04:23.502Z,14.77
2022-12-29T15:06:51.570Z,15.20
2022-12-29T15:09:21.536Z,13.90
2022-12-29T15:11:56.435Z,12.07
2022-12-29T15:14:33.096Z,14.37
2022-12-29T15:17:00.576Z,15.77
2022-12-29T15:19:28.138Z,14.17
2022-12-29T15:21:56.059Z,16.27
2022-12-29T15:24:23.314Z,15.83
2022-12-29T15:26:51.193Z,13.87
2022-12-29T15:29:36.739Z,15.50
2022-12-29T15:32:16.623Z,18.17
2022-12-29T15:34:44.807Z,17.37
2022-12-29T15:37:17.907Z,17.07
2022-12-29T15:39:44.745Z,21.07
2022-12-29T15:42:24.611Z,19.70
2022-12-29T15:44:57.948Z,20.47
2022-12-29T15:47:35.863Z,18.00
2022-12-29T15:50:05.505Z,17.67
2022-12-29T15:52:33.720Z,16.43
2022-12-29T15:55:01.764Z,20.13
2022-12-29T15:57:28.717Z,18.50
2022-12-29T15:59:56.022Z,19.77
2022-12-29T16:02:24.565Z,16.73
2022-12-29T16:07:41.954Z,18.03
2022-12-29T16:10:38.472Z,20.03
2022-12-29T16:13:14.662Z,19.37
2022-12-29T16:15:41.646Z,20.90
2022-12-29T16:18:21.176Z,24.27
2022-12-29T16:20:48.064Z,22.07
2022-12-29T16:23:19.244Z,20.93
2022-12-29T16:25:46.287Z,20.60
2022-12-29T16:28:18.828Z,22.37
2022-12-29T16:30:45.794Z,23.63
2022-12-29T16:33:31.110Z,20.00
2022-12-29T16:35:58.028Z,23.33
2022-12-29T16:38:31.804Z,23.47
2022-12-29T16:40:59.577Z,27.93
2022-12-29T16:43:32.755Z,24.27
2022-12-29T16:45:59.809Z,24.57
2022-12-29T16:48:27.731Z,23.10
2022-12-29T16:51:02.287Z,24.37
2022-12-29T16:53:31.375Z,23.47
2022-12-29T16:56:01.701Z,24.10
2022-12-29T16:58:30.385Z,24.07
2022-12-29T17:00:57.520Z,23.70
2022-12-29T17:03:28.361Z,24.57
2022-12-29T17:05:57.692Z,20.67
2022-12-29T17:08:24.983Z,21.20
2022-12-29T17:11:15.447Z,20.40
2022-12-29T17:13:42.589Z,20.83
2022-12-29T17:16:11.363Z,18.37
2022-12-29T17:18:38.635Z,23.93
2022-12-29T17:21:05.485Z,19.30
2022-12-29T17:23:33.651Z,21.37
2022-12-29T17:26:00.520Z,20.67
2022-12-29T17:28:28.985Z,21.47
2022-12-29T17:30:58.557Z,21.00
2022-12-29T17:33:25.738Z,21.50
2022-12-29T17:35:55.666Z,22.10
2022-12-29T17:38:32.808Z,23.70
2022-12-29T17:40:59.794Z,23.97
2022-12-29T17:43:31.485Z,22.33
2022-12-29T17:46:05.594Z,19.87
2022-12-29T17:48:32.406Z,21.37
2022-12-29T17:50:59.748Z,18.00
2022-12-29T17:53:28.128Z,20.17
2022-12-29T17:55:55.042Z,20.30
2022-12-29T17:58:24.670Z,18.00
2022-12-29T18:00:56.464Z,21.30
2022-12-29T18:03:26.193Z,21.00
2022-12-29T18:05:53.291Z,20.23
2022-12-29T18:08:20.149Z,22.60
2022-12-29T18:10:47.659Z,22.20
2022-12-29T18:13:20.693Z,20.53
2022-12-29T18:15:47.666Z,23.23
2022-12-29T18:18:15.876Z,22.30
2022-12-29T18:20:43.514Z,22.50
2022-12-29T18:23:18.757Z,27.37
2022-12-29T18:26:04.454Z,20.87
2022-12-29T18:28:31.519Z,24.80
2022-12-29T18:30:59.984Z,20.80
2022-12-29T18:33:27.219Z,23.13
2022-12-29T18:35:56.931Z,21.27
2022-12-29T18:38:23.833Z,25.23
2022-12-29T18:40:50.690Z,23.70
2022-12-29T18:43:18.309Z,25.10
2022-12-29T18:45:48.651Z,22.47
2022-12-29T18:48:16.835Z,20.93
2022-12-29T18:50:44.570Z,24.00
2022-12-29T18:53:17.917Z,26.60
2022-12-29T18:55:45.057Z,22.00
2022-12-29T18:58:12.575Z,22.57
2022-12-29T19:00:39.958Z,24.13
2022-12-29T19:03:07.154Z,26.07
2022-12-29T19:05:38.189Z,20.80
2022-12-29T19:08:05.364Z,23.30
2022-12-29T19:10:32.562Z,23.40
2022-12-29T19:12:59.339Z,22.93
2022-12-29T19:15:30.340Z,20.60
2022-12-29T19:18:41.906Z,20.83
2022-12-29T19:20:47.491Z,20.67
2022-12-29T19:23:16.102Z,24.43
2022-12-29T19:25:43.403Z,23.53
2022-12-29T19:28:16.859Z,23.33
2022-12-29T19:30:46.171Z,21.63
2022-12-29T19:33:15.596Z,21.77
2022-12-29T19:35:43.054Z,23.17
2022-12-29T19:38:11.315Z,23.80
2022-12-29T19:40:41.698Z,22.90
2022-12-29T19:43:12.630Z,22.40
2022-12-29T19:45:40.861Z,24.33
2022-12-29T19:48:08.342Z,22.83
2022-12-29T19:50:35.800Z,23.97
2022-12-29T19:53:05.578Z,23.43
2022-12-29T19:55:32.737Z,22.53
2022-12-29T19:57:59.634Z,25.70
2022-12-29T20:00:26.519Z,25.17
2022-12-29T20:02:53.561Z,24.60
2022-12-29T20:05:20.618Z,25.37
2022-12-29T20:07:47.573Z,22.73
2022-12-29T20:10:14.430Z,23.97
2022-12-29T20:12:41.417Z,26.07
2022-12-29T20:15:08.754Z,22.63
2022-12-29T20:18:10.771Z,27.67
2022-12-29T20:20:22.658Z,26.83
2022-12-29T20:22:49.623Z,23.07
2022-12-29T20:25:44.082Z,22.03
2022-12-29T20:28:03.678Z,23.77
2022-12-29T20:30:30.619Z,32.60
2022-12-29T20:32:57.401Z,26.07
2022-12-29T20:35:24.249Z,24.30
2022-12-29T20:37:51.198Z,30.10
2022-12-29T20:40:18.011Z,27.77
2022-12-29T20:42:44.964Z,24.47
2022-12-29T20:45:11.833Z,26.40
2022-12-29T20:47:38.716Z,22.67
2022-12-29T20:50:05.857Z,29.50
2022-12-29T20:52:32.717Z,24.03
2022-12-29T20:54:59.495Z,23.97
2022-12-29T20:57:26.453Z,23.40
2022-12-29T20:59:53.712Z,26.17
2022-12-29T21:02:23.842Z,24.83
2022-12-29T21:05:22.800Z,22.77
2022-12-29T21:07:38.464Z,23.40
2022-12-29T21:10:05.417Z,24.40
2022-12-29T21:12:32.231Z,23.47
2022-12-29T21:14:59.157Z,22.87
2022-12-29T21:17:25.934Z,23.33
2022-12-29T21:19:53.135Z,22.77
2022-12-29T21:22:19.988Z,26.03
2022-12-29T21:24:46.820Z,26.40
2022-12-29T21:27:13.712Z,24.50
2022-12-29T21:29:40.528Z,28.40
2022-12-29T21:32:07.843Z,25.63
2022-12-29T21:34:35.090Z,26.50
2022-12-29T21:37:01.929Z,29.10
2022-12-29T21:39:28.938Z,21.97
2022-12-29T21:42:00.452Z,25.83
2022-12-29T21:44:49.196Z,23.23
2022-12-29T21:47:16.031Z,27.90
2022-12-29T21:49:42.881Z,25.00
2022-12-29T21:52:09.691Z,28.50
2022-12-29T21:54:55.062Z,28.40
2022-12-29T21:57:40.419Z,27.03
2022-12-29T22:00:27.412Z,26.67
2022-12-29T22:03:20.099Z,22.77
2022-12-29T22:06:08.148Z,24.17
2022-12-29T22:08:53.981Z,27.80
2022-12-29T22:11:39.179Z,25.13
2022-12-29T22:14:06.612Z,25.30
2022-12-29T22:16:33.576Z,26.60
2022-12-29T22:19:00.436Z,26.03
2022-12-29T22:21:27.691Z,26.50
2022-12-29T22:23:54.492Z,24.77
2022-12-29T22:26:21.834Z,25.43
2022-12-29T22:28:48.751Z,26.63
2022-12-29T22:31:29.331Z,25.93
2022-12-29T22:33:57.226Z,30.27
2022-12-29T22:36:24.561Z,24.23
2022-12-29T22:38:51.679Z,26.53
2022-12-29T22:41:18.651Z,28.47
2022-12-29T22:43:45.624Z,26.30
2022-12-29T22:46:12.482Z,25.17
2022-12-29T22:48:39.991Z,26.17
2022-12-29T22:51:07.127Z,23.90
2022-12-29T22:53:34.341Z,27.60
2022-12-29T22:56:02.047Z,27.80
2022-12-29T22:58:28.884Z,26.53
2022-12-29T23:00:55.869Z,28.70
2022-12-29T23:03:22.728Z,27.97
2022-12-29T23:06:03.120Z,28.67
2022-12-29T23:08:32.073Z,26.30
2022-12-29T23:10:58.926Z,26.93
2022-12-29T23:13:26.043Z,24.57
2022-12-29T23:15:53.060Z,27.73
2022-12-29T23:18:20.077Z,29.20
2022-12-29T23:20:48.506Z,27.53
2022-12-29T23:23:35.794Z,24.13
2022-12-29T23:26:02.674Z,25.97
2022-12-29T23:28:29.628Z,25.27
2022-12-29T23:30:56.448Z,24.10
2022-12-29T23:33:24.080Z,22.27
2022-12-29T23:35:51.067Z,24.60
2022-12-29T23:38:18.011Z,21.50
2022-12-29T23:40:44.965Z,24.00
2022-12-29T23:43:11.866Z,22.53
2022-12-29T23:45:39.025Z,23.77
2022-12-29T23:48:06.234Z,20.53
2022-12-29T23:50:33.052Z,22.13
2022-12-29T23:52:59.956Z,26.33
2022-12-29T23:55:26.844Z,19.87
2022-12-29T23:57:55.492Z,21.00
